Portada
METAR-TAF:

METAR-TAF

Aeropuertos :

Aeródromo de Zeltweg

Zeltweg, Austria

latitud: 47-12N, longitud: 014-45E, altitud: 677 m

Observación

El informe se hizo hace 35 minutos, a las 14:50 UTC
Viento 3 kt del sur-sureste, variando entre este y suroeste
Temperatura 24°C
Humedad 38%
Presión 1018 hPa

METAR: LOXZ 041450Z 15003KT 080V220 40KM SCT060CU 24/09 Q1018 NOSIG

Hora: 17:25 (15:25 UTC)

Pronóstico

El informe se hizo hace 1 hora y 10 minutos, a las 14:15 UTC
Pronóstico válido del 04 a las 15 UTC al 04 a las 24 UTC
Viento 3 kt con dirección variable
Visibilidad 10 km o más
Nubes dispersas a una altura de 6000 ft

TAF: LOXZ 041415Z 0415/0424 VRB03KT 9999 SCT060

Observaciones y pronósticos meteorológicos de más de 4000 aeropuertos (mensajes METAR y TAF).

Los puntos amarillos y rojos representan las estaciones disponibles.

Ponga el ratón en el punto deseado para ver el nombre de la estación.

Haga clic para ver las observaciones y los pronósticos meteorológicos.

Para cambiar el mapa : haga clic en los botones verdes con una cruz de color negro para hacer un zoom, en el botón verde con un guión para alejar o en las flechas verdes para mapas adyacentes.


METAR-TAF: